Terminal Aerodrome Forecast
Issued by NWS Nashville, TN

Current Version | Previous Version | Text Only | Print | Product List | Glossary Off
Versions: 1 2 3 4 5 6 7 8 9 10 11 12 13 14 15 16 17 18 19 20 21 22 23

000
FTUS44 KOHX 301601 AAC
TAFCSV
TAF AMD
KCSV 301601Z 3016/0112 23008KT P6SM SCT015 BKN040
     FM302000 26007KT P6SM VCTS SCT040CB BKN120
     FM010000 23003KT P6SM SCT120
     FM010800 00000KT 4SM BR SCT120=

USA.gov is the U.S. government's official web portal to all federal, state and local government web resources and services.